Time;durP1;ratioP1;P1;durP2;ratioP2;P2;SDS_P1;SDS_P2;PMS_P1;PMS_P2;Temp;Humidity;BMP_temperature;BMP_pressure;BME280_temperature;BME280_humidity;BME280_pressure;Samples;Min_cycle;Max_cycle;Signal;HPM_P1;HPM_P2
2023/11/01 00:02:41;;;;;;;8.18;3.20;;;;;;;11.83;100.00;100302.97;5090456;28;20052;-65
2023/11/01 00:05:29;;;;;;;11.13;3.47;;;;;;;11.82;100.00;100304.09;5077388;28;20496;-65
2023/11/01 00:08:17;;;;;;;8.52;3.30;;;;;;;11.83;100.00;100288.50;5064709;28;20036;-64
2023/11/01 00:11:05;;;;;;;10.20;3.38;;;;;;;11.82;100.00;100293.16;5078548;28;20028;-63
2023/11/01 00:13:53;;;;;;;8.10;2.95;;;;;;;11.81;100.00;100290.72;5093906;28;20068;-64
2023/11/01 00:16:41;;;;;;;15.52;3.75;;;;;;;11.81;100.00;100279.78;5091485;28;20332;-64
2023/11/01 00:19:29;;;;;;;10.10;3.65;;;;;;;11.79;100.00;100282.84;5088403;28;20132;-63
2023/11/01 00:22:18;;;;;;;11.25;4.05;;;;;;;11.78;100.00;100278.47;5112813;28;20047;-63
2023/11/01 00:25:06;;;;;;;12.27;4.18;;;;;;;11.78;100.00;100275.72;5104415;28;20407;-63
2023/11/01 00:27:54;;;;;;;8.40;3.22;;;;;;;11.78;100.00;100274.94;5082766;28;20357;-63
2023/11/01 00:30:42;;;;;;;15.18;3.90;;;;;;;11.76;100.00;100267.03;5085040;28;20046;-65
2023/11/01 00:33:30;;;;;;;17.27;4.22;;;;;;;11.74;100.00;100263.78;5096252;28;20090;-63
2023/11/01 00:36:18;;;;;;;9.25;3.20;;;;;;;11.70;100.00;100262.72;5104251;28;20047;-62
2023/11/01 00:39:07;;;;;;;9.77;3.40;;;;;;;11.67;100.00;100263.31;5099777;28;20054;-63
2023/11/01 00:41:55;;;;;;;12.73;3.67;;;;;;;11.67;100.00;100261.41;5107794;28;20131;-64
2023/11/01 00:44:43;;;;;;;10.73;3.40;;;;;;;11.67;100.00;100257.88;5094435;28;20385;-64
2023/11/01 00:47:31;;;;;;;13.82;3.63;;;;;;;11.65;100.00;100251.88;5091650;28;20040;-63
2023/11/01 00:50:19;;;;;;;13.68;3.78;;;;;;;11.65;100.00;100266.31;5091201;28;20093;-63
2023/11/01 00:53:07;;;;;;;13.57;3.83;;;;;;;11.63;100.00;100252.16;5092530;28;20528;-64
2023/11/01 00:55:56;;;;;;;15.50;3.65;;;;;;;11.61;100.00;100248.91;5073627;28;20538;-64
2023/11/01 00:58:44;;;;;;;10.40;3.25;;;;;;;11.62;100.00;100255.19;5058789;28;20504;-64
2023/11/01 01:01:32;;;;;;;12.10;3.65;;;;;;;11.61;100.00;100248.09;5083382;28;20129;-65
2023/11/01 01:04:20;;;;;;;9.40;3.60;;;;;;;11.59;100.00;100247.56;5088821;28;20044;-65
2023/11/01 01:07:08;;;;;;;15.65;3.80;;;;;;;11.59;100.00;100247.56;5092705;28;20044;-65
2023/11/01 01:09:56;;;;;;;9.55;3.38;;;;;;;11.57;100.00;100247.03;5078220;28;20050;-65
2023/11/01 01:12:45;;;;;;;9.90;3.50;;;;;;;11.57;100.00;100244.31;5064848;28;20055;-65
2023/11/01 01:15:33;;;;;;;11.20;3.35;;;;;;;11.58;100.00;100240.50;5084465;28;20052;-65
2023/11/01 01:18:20;;;;;;;14.38;3.75;;;;;;;11.58;100.00;100229.56;5078681;28;20077;-64
2023/11/01 01:21:09;;;;;;;10.80;3.13;;;;;;;11.58;100.00;100226.84;5091414;28;20052;-65
2023/11/01 01:23:57;;;;;;;10.90;3.25;;;;;;;11.56;100.00;100218.94;5072465;28;20075;-64
2023/11/01 01:26:45;;;;;;;13.30;3.47;;;;;;;11.55;100.00;100217.31;5087157;28;20083;-65
2023/11/01 01:29:33;;;;;;;9.88;3.58;;;;;;;11.56;100.00;100215.41;5076742;28;20079;-64
2023/11/01 01:32:21;;;;;;;10.20;3.40;;;;;;;11.57;100.00;100214.28;5092375;28;20096;-64
2023/11/01 01:35:12;;;;;;;11.15;3.30;;;;;;;11.59;100.00;100214.81;5077457;28;20530;-64
2023/11/01 01:38:01;;;;;;;9.57;2.67;;;;;;;11.59;100.00;100201.16;5077041;28;20044;-64
2023/11/01 01:40:49;;;;;;;12.27;3.33;;;;;;;11.60;100.00;100203.63;5093434;28;20178;-64
2023/11/01 01:43:37;;;;;;;9.15;3.13;;;;;;;11.61;100.00;100198.97;5078174;28;20446;-64
2023/11/01 01:46:28;;;;;;;10.38;3.25;;;;;;;11.59;100.00;100190.25;5074641;28;20127;-64
2023/11/01 01:49:16;;;;;;;12.88;3.50;;;;;;;11.58;100.00;100188.66;5072908;28;20040;-64
2023/11/01 01:52:04;;;;;;;11.18;3.20;;;;;;;11.56;100.00;100179.94;5072298;28;20078;-64
2023/11/01 01:54:53;;;;;;;9.82;3.10;;;;;;;11.56;100.00;100177.22;5053415;28;20044;-64
2023/11/01 01:57:41;;;;;;;10.13;3.30;;;;;;;11.55;100.00;100178.31;5099125;28;20126;-63
2023/11/01 02:00:30;;;;;;;7.35;2.80;;;;;;;11.55;100.00;100170.94;5104654;28;20047;-63
2023/11/01 02:03:18;;;;;;;11.23;3.03;;;;;;;11.56;100.00;100169.03;5147227;27;20039;-64
2023/11/01 02:06:06;;;;;;;7.97;2.83;;;;;;;11.58;100.00;100166.81;5126444;28;20044;-63
2023/11/01 02:08:54;;;;;;;7.47;2.58;;;;;;;11.57;100.00;100157.81;5076010;28;20135;-64
2023/11/01 02:11:43;;;;;;;11.27;3.83;;;;;;;11.60;100.00;100156.44;5102838;28;20035;-64
2023/11/01 02:14:31;;;;;;;9.18;2.92;;;;;;;11.60;100.00;100150.97;5089552;28;20192;-65
2023/11/01 02:17:19;;;;;;;10.35;3.10;;;;;;;11.59;100.00;100141.94;5122948;27;20369;-64
2023/11/01 02:20:12;;;;;;;8.02;2.53;;;;;;;11.58;100.00;100151.25;5112119;28;20050;-65
2023/11/01 02:23:09;;;;;;;9.10;3.17;;;;;;;11.55;100.00;100137.41;5111491;28;20040;-63
2023/11/01 02:25:57;;;;;;;11.38;3.25;;;;;;;11.54;100.00;100133.03;5095887;28;20060;-64
2023/11/01 02:28:45;;;;;;;10.15;3.13;;;;;;;11.52;100.00;100125.16;5095052;28;20043;-64
2023/11/01 02:31:34;;;;;;;9.48;3.20;;;;;;;11.54;100.00;100120.19;5111725;28;20040;-63
2023/11/01 02:34:22;;;;;;;7.88;2.65;;;;;;;11.55;100.00;100118.31;5110610;28;20407;-63
2023/11/01 02:37:10;;;;;;;8.80;2.83;;;;;;;11.54;100.00;100112.00;5083159;28;20046;-64
2023/11/01 02:39:58;;;;;;;9.45;2.90;;;;;;;11.55;100.00;100112.84;5112740;28;20043;-64
2023/11/01 02:42:47;;;;;;;8.65;3.17;;;;;;;11.55;100.00;100101.94;5096728;28;20036;-64
2023/11/01 02:45:35;;;;;;;8.05;2.72;;;;;;;11.54;100.00;100105.75;5068659;28;20047;-65
2023/11/01 02:48:24;;;;;;;10.45;3.30;;;;;;;11.52;100.00;100097.88;5075299;28;20048;-65
2023/11/01 02:51:12;;;;;;;7.13;2.63;;;;;;;11.50;100.00;100084.50;5097476;28;20514;-64
2023/11/01 02:54:00;;;;;;;8.13;3.20;;;;;;;11.50;100.00;100079.06;5111578;28;20529;-64
2023/11/01 02:56:48;;;;;;;10.85;2.75;;;;;;;11.51;100.00;100077.13;5096525;28;20050;-63
2023/11/01 02:59:36;;;;;;;8.15;2.70;;;;;;;11.52;100.00;100071.41;5087587;28;20059;-65
2023/11/01 03:02:24;;;;;;;13.10;3.03;;;;;;;11.54;100.00;100067.56;5101590;28;20036;-65
2023/11/01 03:05:12;;;;;;;6.75;2.38;;;;;;;11.54;100.00;100073.81;5088203;28;20044;-65
2023/11/01 03:08:00;;;;;;;6.72;2.08;;;;;;;11.54;100.00;100062.09;5101070;28;20471;-64
2023/11/01 03:10:48;;;;;;;9.18;2.90;;;;;;;11.55;100.00;100058.28;5101248;28;20411;-63
2023/11/01 03:13:36;;;;;;;6.38;2.25;;;;;;;11.57;100.00;100050.59;5113271;28;20047;-65
2023/11/01 03:16:24;;;;;;;8.45;2.17;;;;;;;11.54;100.00;100040.25;5105119;28;20046;-65
2023/11/01 03:19:12;;;;;;;5.32;2.10;;;;;;;11.50;100.00;100040.88;5093708;28;20551;-64
2023/11/01 03:22:00;;;;;;;6.20;2.00;;;;;;;11.49;100.00;100039.22;5120912;28;20039;-64
2023/11/01 03:24:48;;;;;;;6.93;2.53;;;;;;;11.52;100.00;100033.19;5120827;28;20047;-64
2023/11/01 03:27:36;;;;;;;6.25;2.25;;;;;;;11.52;100.00;100029.66;5117578;28;20046;-64
2023/11/01 03:30:24;;;;;;;7.60;2.10;;;;;;;11.52;100.00;100033.19;5099170;28;20187;-65
2023/11/01 03:33:12;;;;;;;6.28;2.08;;;;;;;11.54;100.00;100030.16;5101852;28;20069;-65
2023/11/01 03:36:00;;;;;;;3.75;1.92;;;;;;;11.53;100.00;100039.47;5102085;28;20412;-65
2023/11/01 03:38:48;;;;;;;5.38;1.90;;;;;;;11.55;100.00;100028.28;5100524;28;20071;-65
2023/11/01 03:41:40;;;;;;;7.10;2.15;;;;;;;11.55;100.00;100020.09;5120133;27;20155;-65
2023/11/01 03:44:28;;;;;;;4.93;1.85;;;;;;;11.53;100.00;100017.63;5114546;27;20048;-64
2023/11/01 03:47:16;;;;;;;4.65;2.17;;;;;;;11.52;100.00;100021.47;5086036;28;20036;-64
2023/11/01 03:50:07;;;;;;;4.05;1.60;;;;;;;11.54;100.00;100023.91;5113770;28;20051;-65
2023/11/01 03:52:55;;;;;;;5.55;1.80;;;;;;;11.52;100.00;100022.28;5113075;28;20399;-64
2023/11/01 03:55:43;;;;;;;3.10;1.63;;;;;;;11.55;100.00;100020.09;5114512;28;20049;-63
2023/11/01 03:58:31;;;;;;;3.58;1.45;;;;;;;11.55;100.00;100014.63;5103767;28;20528;-64
2023/11/01 04:01:19;;;;;;;2.15;1.52;;;;;;;11.55;100.00;100017.34;5075148;28;20048;-65
2023/11/01 04:04:08;;;;;;;5.63;1.85;;;;;;;11.55;100.00;100020.88;5095539;28;20086;-64
2023/11/01 04:06:56;;;;;;;4.45;2.13;;;;;;;11.55;100.00;100009.97;5094246;28;20064;-64
2023/11/01 04:09:44;;;;;;;5.45;2.00;;;;;;;11.53;100.00;100017.63;5092727;28;20069;-63
2023/11/01 04:12:31;;;;;;;4.40;1.70;;;;;;;11.56;100.00;100016.25;5115265;28;20081;-64
2023/11/01 04:15:21;;;;;;;3.72;1.30;;;;;;;11.57;100.00;100013.22;5115356;28;20177;-64
2023/11/01 04:18:09;;;;;;;2.97;1.30;;;;;;;11.60;100.00;100017.28;5099685;28;20040;-64
2023/11/01 04:20:57;;;;;;;2.88;1.50;;;;;;;11.61;100.00;100008.78;5096120;28;20048;-64
2023/11/01 04:23:45;;;;;;;4.28;1.55;;;;;;;11.62;100.00;100015.88;5081093;28;20181;-65
2023/11/01 04:26:33;;;;;;;2.45;1.50;;;;;;;11.63;100.00;100008.50;5099750;28;20079;-65
2023/11/01 04:29:23;;;;;;;4.93;1.90;;;;;;;11.63;100.00;100006.56;5112889;28;20046;-65
2023/11/01 04:32:11;;;;;;;2.17;1.13;;;;;;;11.65;100.00;100009.03;5095145;28;20047;-65
2023/11/01 04:34:59;;;;;;;1.58;1.20;;;;;;;11.66;100.00;100007.91;5111826;28;20126;-65
2023/11/01 04:37:47;;;;;;;3.85;1.50;;;;;;;11.68;100.00;100002.97;5114041;28;20054;-64
2023/11/01 04:40:35;;;;;;;3.50;1.70;;;;;;;11.69;100.00;100008.13;5113166;28;20156;-64
2023/11/01 04:43:23;;;;;;;4.10;1.83;;;;;;;11.72;100.00;100009.47;5094685;28;20470;-64
2023/11/01 04:46:11;;;;;;;2.13;1.42;;;;;;;11.72;100.00;99999.34;5046626;28;20068;-64
2023/11/01 04:48:59;;;;;;;2.65;1.48;;;;;;;11.73;100.00;100000.97;5130104;27;20108;-64
2023/11/01 04:51:47;;;;;;;4.85;1.88;;;;;;;11.75;100.00;99997.13;5119419;27;20122;-64
2023/11/01 04:54:35;;;;;;;4.15;1.52;;;;;;;11.76;100.00;99993.28;5141946;27;20067;-63
2023/11/01 04:57:23;;;;;;;5.50;1.63;;;;;;;11.76;100.00;99988.66;5090714;27;20047;-65
2023/11/01 05:00:15;;;;;;;6.07;1.88;;;;;;;11.77;100.00;99990.28;5100952;28;20127;-65
2023/11/01 05:03:04;;;;;;;8.50;2.50;;;;;;;11.79;100.00;99988.06;5103080;28;20532;-63
2023/11/01 05:05:52;;;;;;;5.72;1.85;;;;;;;11.79;100.00;99988.06;5138592;27;20047;-63
2023/11/01 05:08:40;;;;;;;6.13;2.22;;;;;;;11.80;100.00;99984.22;5147731;27;20127;-63
2023/11/01 05:11:28;;;;;;;6.05;2.58;;;;;;;11.80;100.00;99986.94;5133085;27;20047;-64
2023/11/01 05:14:18;;;;;;;5.40;1.85;;;;;;;11.81;100.00;99985.84;5115267;27;20095;-64
2023/11/01 05:17:06;;;;;;;6.20;2.17;;;;;;;11.82;100.00;99982.00;5134698;27;20436;-64
2023/11/01 05:19:54;;;;;;;5.13;1.98;;;;;;;11.83;100.00;99978.16;5119514;27;20050;-65
2023/11/01 05:22:42;;;;;;;8.73;2.47;;;;;;;11.86;100.00;99974.84;5106136;28;20069;-65
2023/11/01 05:25:30;;;;;;;5.78;2.45;;;;;;;11.87;100.00;99973.75;5079664;27;20050;-64
2023/11/01 05:28:18;;;;;;;12.02;3.53;;;;;;;11.88;100.00;99963.66;5094088;28;20488;-65
2023/11/01 05:31:06;;;;;;;10.82;2.75;;;;;;;11.87;100.00;99953.84;5077669;28;20051;-64
2023/11/01 05:33:54;;;;;;;13.63;3.17;;;;;;;11.84;100.00;99955.22;5093581;28;20462;-65
2023/11/01 05:36:42;;;;;;;14.82;3.28;;;;;;;11.83;100.00;99950.84;5124325;27;20051;-65
2023/11/01 05:39:30;;;;;;;9.05;2.67;;;;;;;11.84;100.00;99941.59;5105207;27;20054;-65
2023/11/01 05:42:21;;;;;;;14.45;3.13;;;;;;;11.88;100.00;99944.53;5132572;27;20047;-64
2023/11/01 05:45:11;;;;;;;11.80;2.95;;;;;;;11.94;100.00;99952.34;5092163;28;20051;-64
2023/11/01 05:48:11;;;;;;;11.57;2.53;;;;;;;11.98;100.00;99949.84;4807841;28;10001471;-64
2023/11/01 05:51:02;;;;;;;13.00;3.20;;;;;;;11.99;100.00;99950.66;5099050;28;20276;-64
2023/11/01 05:53:50;;;;;;;11.65;2.95;;;;;;;11.97;100.00;99950.13;5079595;28;20120;-63
2023/11/01 05:56:40;;;;;;;11.75;3.28;;;;;;;11.97;100.00;99955.59;5114676;27;20047;-64
2023/11/01 05:59:28;;;;;;;8.68;2.95;;;;;;;11.98;100.00;99955.31;5129731;27;20059;-64
2023/11/01 06:02:17;;;;;;;10.68;2.97;;;;;;;12.01;100.00;99956.63;5080816;28;20067;-63
2023/11/01 06:05:06;;;;;;;13.05;3.35;;;;;;;11.99;100.00;99954.19;5108603;28;20432;-63
2023/11/01 06:07:54;;;;;;;14.80;3.33;;;;;;;12.00;100.00;99961.28;5101089;28;20133;-63
2023/11/01 06:10:42;;;;;;;11.40;2.83;;;;;;;12.02;100.00;99952.78;5114955;28;20051;-64
2023/11/01 06:13:30;;;;;;;11.05;3.00;;;;;;;12.02;100.00;99953.59;5107714;28;20240;-63
2023/11/01 06:16:18;;;;;;;7.05;2.50;;;;;;;11.99;100.00;99956.13;5106187;28;20107;-63
2023/11/01 06:19:06;;;;;;;10.82;2.90;;;;;;;12.01;100.00;99953.91;5095720;28;20039;-63
2023/11/01 06:21:54;;;;;;;9.73;2.53;;;;;;;12.02;100.00;99960.97;5093639;28;20039;-63
2023/11/01 06:24:42;;;;;;;12.45;3.25;;;;;;;12.00;100.00;99957.72;5121669;28;20180;-64
2023/11/01 06:27:30;;;;;;;12.40;3.20;;;;;;;12.00;100.00;99957.72;5093066;28;20051;-64
2023/11/01 06:30:18;;;;;;;18.48;3.03;;;;;;;12.00;100.00;99957.72;5092799;28;20038;-64
2023/11/01 06:33:07;;;;;;;8.50;2.75;;;;;;;12.02;100.00;99959.03;5092814;28;20052;-63
2023/11/01 06:35:55;;;;;;;10.23;2.90;;;;;;;12.02;100.00;99959.03;5095416;28;20062;-62
2023/11/01 06:38:43;;;;;;;6.78;2.38;;;;;;;12.02;100.00;99958.25;5090874;28;20419;-65
2023/11/01 06:41:31;;;;;;;10.77;3.15;;;;;;;12.02;100.00;99966.44;5110945;28;20039;-66
2023/11/01 06:44:19;;;;;;;7.03;2.20;;;;;;;12.05;100.00;99971.28;5105658;27;20062;-65
2023/11/01 06:47:07;;;;;;;14.40;3.45;;;;;;;12.03;100.00;99970.81;5105722;28;20105;-66
2023/11/01 06:49:55;;;;;;;16.05;3.25;;;;;;;11.95;100.00;99966.81;5095267;28;20484;-63
2023/11/01 06:52:46;;;;;;;16.90;3.92;;;;;;;11.91;100.00;99972.06;5093080;28;20060;-65
2023/11/01 06:55:34;;;;;;;16.77;3.40;;;;;;;11.88;100.00;99964.47;5092408;28;20548;-64
2023/11/01 06:58:22;;;;;;;9.27;3.03;;;;;;;11.93;100.00;99961.66;5095702;27;20172;-64
2023/11/01 07:01:11;;;;;;;12.43;3.20;;;;;;;12.00;100.00;99966.75;5104391;27;20203;-65
2023/11/01 07:03:59;;;;;;;11.88;3.08;;;;;;;12.04;100.00;99972.41;5098413;28;20181;-65
2023/11/01 07:06:47;;;;;;;12.85;3.38;;;;;;;12.02;100.00;99971.91;5091291;28;20032;-65
2023/11/01 07:09:35;;;;;;;12.98;3.13;;;;;;;12.01;100.00;99973.00;5124551;27;20035;-65
2023/11/01 07:12:23;;;;;;;11.38;2.67;;;;;;;12.01;100.00;99979.28;5135516;27;20039;-65
2023/11/01 07:15:11;;;;;;;14.25;3.10;;;;;;;12.04;100.00;99980.59;5124390;27;20040;-65
2023/11/01 07:17:59;;;;;;;12.85;3.13;;;;;;;12.03;100.00;99977.06;5100780;27;20046;-64
2023/11/01 07:20:48;;;;;;;7.25;2.28;;;;;;;12.02;100.00;99977.34;5114670;28;20044;-65
2023/11/01 07:23:36;;;;;;;11.68;3.10;;;;;;;12.02;100.00;99985.53;5081598;28;20430;-65
2023/11/01 07:26:24;;;;;;;15.80;3.75;;;;;;;12.02;100.00;99974.63;5098193;27;20035;-65
2023/11/01 07:29:12;;;;;;;18.33;3.28;;;;;;;12.03;100.00;99977.06;5119990;27;20066;-64
2023/11/01 07:32:00;;;;;;;8.63;2.80;;;;;;;12.05;100.00;99979.47;5095349;28;20256;-64
2023/11/01 07:34:48;;;;;;;14.82;3.67;;;;;;;12.04;100.00;99977.88;5081232;28;20079;-66
2023/11/01 07:37:36;;;;;;;11.13;2.90;;;;;;;12.05;100.00;99969.38;5102707;27;20059;-64
2023/11/01 07:40:24;;;;;;;9.52;3.47;;;;;;;12.07;100.00;99974.53;5107829;28;20040;-64
2023/11/01 07:43:12;;;;;;;12.98;3.40;;;;;;;12.09;100.00;99975.84;5081197;28;20094;-64
2023/11/01 07:46:00;;;;;;;8.88;2.80;;;;;;;12.10;100.00;99976.69;5089809;28;20040;-66
2023/11/01 07:48:48;;;;;;;9.85;2.78;;;;;;;12.13;100.00;99970.63;5117173;27;20051;-66
2023/11/01 07:51:36;;;;;;;12.43;3.30;;;;;;;12.14;100.00;99977.69;5120648;27;20169;-65
2023/11/01 07:54:24;;;;;;;11.70;2.83;;;;;;;12.11;100.00;99968.19;5107065;27;20130;-66
2023/11/01 07:57:12;;;;;;;11.48;3.10;;;;;;;12.12;100.00;99968.97;5111648;27;20193;-66
2023/11/01 08:00:00;;;;;;;9.95;2.78;;;;;;;12.17;100.00;99971.66;5098734;27;20051;-66
2023/11/01 08:02:53;;;;;;;14.82;3.85;;;;;;;12.22;100.00;99965.25;5115849;27;20054;-64
2023/11/01 08:05:41;;;;;;;12.00;3.15;;;;;;;12.20;100.00;99964.78;5136037;27;20498;-66
2023/11/01 08:08:29;;;;;;;13.95;3.50;;;;;;;12.18;100.00;99967.81;5122035;27;20047;-67
2023/11/01 08:11:17;;;;;;;10.10;3.30;;;;;;;12.19;100.00;99957.69;5152757;27;20047;-65
2023/11/01 08:14:07;;;;;;;9.25;3.00;;;;;;;12.20;100.00;99962.84;5085456;28;20463;-68
2023/11/01 08:16:56;;;;;;;13.13;3.40;;;;;;;12.19;100.00;99963.94;5076875;28;20488;-67
2023/11/01 08:19:44;;;;;;;8.68;3.10;;;;;;;12.19;100.00;99961.22;5071852;28;20082;-65
2023/11/01 08:22:32;;;;;;;9.95;2.88;;;;;;;12.20;100.00;99960.13;5082486;28;20066;-65
2023/11/01 08:25:22;;;;;;;13.27;3.15;;;;;;;12.19;100.00;99953.03;5129664;27;20088;-64
2023/11/01 08:28:10;;;;;;;14.65;4.05;;;;;;;12.19;100.00;99953.03;5120594;27;20043;-65
2023/11/01 08:30:58;;;;;;;13.85;3.70;;;;;;;12.29;100.00;99949.28;5127864;27;20046;-65
2023/11/01 08:33:48;;;;;;;15.23;3.92;;;;;;;12.33;100.00;99947.59;5113183;27;20040;-65
2023/11/01 08:36:37;;;;;;;19.17;3.80;;;;;;;12.35;100.00;99940.72;5080469;28;20078;-64
2023/11/01 08:39:25;;;;;;;11.68;3.45;;;;;;;12.40;100.00;99944.47;5086164;28;20043;-64
2023/11/01 08:42:13;;;;;;;13.05;3.42;;;;;;;12.39;100.00;99945.56;5098953;28;20042;-64
2023/11/01 08:45:01;;;;;;;11.95;2.90;;;;;;;12.43;100.00;99949.31;5107388;28;20085;-64
2023/11/01 08:47:49;;;;;;;12.23;2.90;;;;;;;12.43;100.00;99957.53;5064906;28;20517;-65
2023/11/01 08:50:37;;;;;;;12.25;3.40;;;;;;;12.44;100.00;99959.97;5073169;28;20122;-64
2023/11/01 08:53:25;;;;;;;11.52;2.95;;;;;;;12.45;100.00;99949.84;5098938;28;20066;-65
2023/11/01 08:56:16;;;;;;;11.38;3.05;;;;;;;12.42;100.00;99945.78;5112952;28;20051;-65
2023/11/01 08:59:21;;;;;;;13.27;3.10;;;;;;;12.48;100.00;99946.50;5102519;28;20050;-64
2023/11/01 09:02:11;;;;;;;10.88;3.00;;;;;;;12.49;100.00;99945.41;5115824;28;20392;-64
2023/11/01 09:05:03;;;;;;;9.02;2.65;;;;;;;12.54;100.00;99950.75;5114147;28;20050;-64
2023/11/01 09:07:51;;;;;;;10.27;3.10;;;;;;;12.50;100.00;99936.88;5112343;28;20051;-66
2023/11/01 09:10:39;;;;;;;10.65;3.10;;;;;;;12.54;100.00;99935.16;5114369;28;20050;-64
2023/11/01 09:13:27;;;;;;;11.05;3.13;;;;;;;12.53;100.00;99930.00;5097523;28;20043;-65
2023/11/01 09:16:15;;;;;;;15.98;3.50;;;;;;;12.55;100.00;99927.78;5098427;28;20112;-63
2023/11/01 09:19:03;;;;;;;11.68;2.80;;;;;;;12.53;100.00;99925.38;5098315;28;20040;-65
2023/11/01 09:21:51;;;;;;;14.02;3.38;;;;;;;12.55;100.00;99914.13;5115721;28;20047;-64
2023/11/01 09:24:39;;;;;;;12.80;2.70;;;;;;;12.58;100.00;99919.00;5098858;28;20510;-66
2023/11/01 09:27:27;;;;;;;9.05;2.88;;;;;;;12.57;100.00;99915.44;5121245;28;20051;-64
2023/11/01 09:30:15;;;;;;;11.38;2.78;;;;;;;12.62;100.00;99909.06;5121463;28;20099;-63
2023/11/01 09:33:03;;;;;;;9.80;2.90;;;;;;;12.64;100.00;99912.28;5115544;28;20120;-63
2023/11/01 09:35:52;;;;;;;9.95;2.90;;;;;;;12.67;100.00;99917.16;5072974;28;20040;-64
2023/11/01 09:38:40;;;;;;;12.27;3.13;;;;;;;12.62;100.00;99900.84;5120621;28;20043;-64
2023/11/01 09:41:44;;;;;;;12.93;2.90;;;;;;;12.64;100.00;99922.44;5102471;28;20130;-64
2023/11/01 09:44:32;;;;;;;18.00;3.47;;;;;;;12.67;100.00;99903.47;5063418;28;20487;-64
2023/11/01 09:47:20;;;;;;;10.80;2.88;;;;;;;12.66;100.00;99904.59;5079159;28;20484;-64
2023/11/01 09:50:09;;;;;;;13.52;2.78;;;;;;;12.67;100.00;99902.69;5093959;28;20149;-65
2023/11/01 09:52:57;;;;;;;7.15;2.42;;;;;;;12.66;100.00;99899.13;5097294;28;20087;-64
2023/11/01 09:55:45;;;;;;;10.95;3.25;;;;;;;12.78;100.00;99904.91;5097985;28;20040;-64
2023/11/01 09:58:33;;;;;;;12.35;2.88;;;;;;;12.79;100.00;99903.81;5097427;28;20047;-64
2023/11/01 10:01:21;;;;;;;13.18;3.15;;;;;;;12.78;100.00;99902.16;5083223;28;20058;-65
2023/11/01 10:04:09;;;;;;;17.35;3.65;;;;;;;12.73;100.00;99894.06;5088416;28;20174;-64
2023/11/01 10:06:57;;;;;;;12.30;3.13;;;;;;;12.71;100.00;99893.56;5098580;28;20047;-64
2023/11/01 10:09:46;;;;;;;10.63;3.00;;;;;;;12.73;100.00;99890.53;5071618;28;20127;-64
2023/11/01 10:12:34;;;;;;;12.80;3.30;;;;;;;12.71;100.00;99877.16;5098198;28;20043;-65
2023/11/01 10:15:22;;;;;;;10.18;2.80;;;;;;;12.74;100.00;99887.47;5098355;28;20496;-64
2023/11/01 10:18:12;;;;;;;10.25;3.00;;;;;;;12.77;100.00;99877.84;5098760;28;20487;-64
2023/11/01 10:21:00;;;;;;;9.95;2.88;;;;;;;12.78;100.00;99879.50;5099504;28;20101;-64
2023/11/01 10:23:48;;;;;;;14.20;3.50;;;;;;;12.81;100.00;99867.13;5072169;28;20052;-64
2023/11/01 10:26:37;;;;;;;10.05;2.97;;;;;;;12.82;100.00;99872.31;5113641;28;20377;-64
2023/11/01 10:29:27;;;;;;;8.55;2.90;;;;;;;12.83;100.00;99865.72;5112158;28;20052;-65
2023/11/01 10:32:15;;;;;;;10.43;3.00;;;;;;;12.87;100.00;99857.69;5098317;28;20043;-65
2023/11/01 10:35:12;;;;;;;13.10;3.13;;;;;;;12.88;100.00;99860.13;5114907;28;20046;-64
2023/11/01 10:38:00;;;;;;;9.80;3.05;;;;;;;12.89;100.00;99859.03;5096237;28;20046;-65
2023/11/01 10:40:48;;;;;;;9.23;2.65;;;;;;;12.91;100.00;99864.97;5106615;28;20627;-65
2023/11/01 10:43:37;;;;;;;9.95;3.10;;;;;;;12.92;100.00;99863.06;5110120;28;20048;-66
2023/11/01 10:46:25;;;;;;;11.88;3.05;;;;;;;12.95;100.00;99854.25;5112728;28;20040;-65
2023/11/01 10:49:13;;;;;;;16.85;4.22;;;;;;;12.98;100.00;99848.97;5084530;28;20083;-65
2023/11/01 10:52:01;;;;;;;11.73;2.78;;;;;;;12.99;100.00;99842.41;5111625;28;20039;-65
2023/11/01 10:54:51;;;;;;;8.63;3.00;;;;;;;13.05;100.00;99836.81;5063976;28;20040;-65
2023/11/01 10:57:41;;;;;;;10.75;3.00;;;;;;;13.04;100.00;99825.06;5092379;28;20044;-65
2023/11/01 11:00:37;;;;;;;14.32;3.45;;;;;;;13.07;100.00;99824.44;5070005;28;20040;-65
2023/11/01 11:03:31;;;;;;;11.38;2.80;;;;;;;13.11;100.00;99819.97;5059839;28;20091;-64
2023/11/01 11:06:27;;;;;;;17.70;3.40;;;;;;;13.12;100.00;99818.84;5092662;28;20041;-66
2023/11/01 11:09:23;;;;;;;14.70;2.88;;;;;;;13.18;100.00;99803.94;5077066;28;20047;-65
2023/11/01 11:12:15;;;;;;;11.25;2.92;;;;;;;13.25;100.00;99798.00;5083193;28;20040;-66
2023/11/01 11:15:04;;;;;;;8.77;2.67;;;;;;;13.31;100.00;99796.00;5097871;28;20555;-66
2023/11/01 11:18:07;;;;;;;9.05;2.97;;;;;;;13.36;100.00;99784.94;5096307;28;20044;-65
2023/11/01 11:20:58;;;;;;;15.88;3.35;;;;;;;13.42;100.00;99780.94;5091809;28;20516;-64
2023/11/01 11:23:46;;;;;;;10.07;3.42;;;;;;;13.43;100.00;99777.09;5111917;27;20047;-65
2023/11/01 11:26:41;;;;;;;16.20;3.25;;;;;;;13.39;100.00;99771.44;5136357;27;20047;-65
2023/11/01 11:29:47;;;;;;;11.10;3.33;;;;;;;13.37;100.00;99767.38;5120159;27;20061;-64
2023/11/01 11:32:35;;;;;;;12.70;3.50;;;;;;;13.37;100.00;99768.22;5114975;27;20498;-65
2023/11/01 11:35:23;;;;;;;11.43;3.20;;;;;;;13.36;100.00;99761.13;5119876;27;20130;-65
2023/11/01 11:38:32;;;;;;;8.25;3.05;;;;;;;13.40;100.00;99759.38;5121065;27;20123;-66
2023/11/01 11:41:20;;;;;;;11.32;2.80;;;;;;;13.45;100.00;99750.22;5103589;28;20048;-63
2023/11/01 11:44:15;;;;;;;14.70;3.28;;;;;;;13.50;100.00;99743.81;5103413;28;20051;-65
2023/11/01 11:47:28;;;;;;;11.73;2.95;;;;;;;13.50;100.00;99743.81;5113337;28;20055;-65
2023/11/01 11:50:20;;;;;;;9.85;3.00;;;;;;;13.52;100.00;99739.66;5086364;28;20040;-64
2023/11/01 11:53:08;;;;;;;9.35;2.60;;;;;;;13.51;100.00;99729.81;5094630;28;20083;-64
2023/11/01 11:55:56;;;;;;;15.00;3.50;;;;;;;13.52;100.00;99725.16;5046379;28;20123;-64
2023/11/01 11:58:44;;;;;;;12.65;3.03;;;;;;;13.52;100.00;99720.50;5094790;28;20040;-64
2023/11/01 12:01:32;;;;;;;11.60;3.13;;;;;;;13.52;100.00;99709.53;5084486;28;20396;-65
2023/11/01 12:04:21;;;;;;;7.65;2.03;;;;;;;13.52;100.00;99709.53;5115980;27;20503;-65
2023/11/01 12:07:17;;;;;;;10.30;2.78;;;;;;;13.51;100.00;99710.66;5120476;27;20055;-64
2023/11/01 12:10:08;;;;;;;9.68;2.38;;;;;;;13.53;100.00;99708.41;5120751;27;20402;-67
2023/11/01 12:12:57;;;;;;;9.63;2.40;;;;;;;13.57;100.00;99706.66;5120789;27;20180;-67
2023/11/01 12:15:45;;;;;;;8.68;2.63;;;;;;;13.59;100.00;99696.22;5119491;27;20097;-66
2023/11/01 12:18:33;;;;;;;8.88;2.50;;;;;;;13.60;100.00;99695.06;5133212;27;20106;-66
2023/11/01 12:21:21;;;;;;;5.82;2.00;;;;;;;13.65;100.00;99694.13;5106576;27;20051;-67
2023/11/01 12:24:10;;;;;;;9.35;2.28;;;;;;;13.67;100.00;99680.13;5093924;28;20143;-64
2023/11/01 12:27:09;;;;;;;6.38;2.25;;;;;;;13.67;100.00;99674.66;5099953;28;20040;-63
2023/11/01 12:29:57;;;;;;;12.07;3.20;;;;;;;13.71;100.00;99672.88;5094044;28;20043;-66
2023/11/01 12:32:45;;;;;;;7.20;2.38;;;;;;;13.71;100.00;99661.94;5103748;28;20075;-65
2023/11/01 12:35:44;;;;;;;7.88;2.50;;;;;;;13.69;100.00;99654.06;5114432;28;20077;-66
2023/11/01 12:38:36;;;;;;;9.85;2.55;;;;;;;13.70;100.00;99646.66;5099640;28;20047;-65
2023/11/01 12:41:25;;;;;;;13.32;2.65;;;;;;;13.70;100.00;99643.91;5133635;27;20113;-64
2023/11/01 12:44:14;;;;;;;10.68;2.85;;;;;;;13.70;100.00;99630.22;5082040;28;20044;-64
2023/11/01 12:47:02;;;;;;;9.27;2.92;;;;;;;13.70;100.00;99630.22;5114290;28;20047;-64
2023/11/01 12:49:51;;;;;;;10.30;2.15;;;;;;;13.70;100.00;99616.53;5118109;27;20047;-64
2023/11/01 12:52:40;;;;;;;10.60;2.95;;;;;;;13.69;100.00;99615.75;5118291;27;20568;-63
2023/11/01 12:55:28;;;;;;;8.82;2.25;;;;;;;13.70;100.00;99614.59;5085525;28;20057;-64
2023/11/01 12:58:17;;;;;;;9.68;2.85;;;;;;;13.72;100.00;99608.81;5085011;28;20522;-65